Time;durP1;ratioP1;P1;durP2;ratioP2;P2;SDS_P1;SDS_P2;PMS_P1;PMS_P2;Temp;Humidity;BMP_temperature;BMP_pressure;BME280_temperature;BME280_humidity;BME280_pressure;Samples;Min_cycle;Max_cycle;Signal;HPM_P1;HPM_P2
2022/06/27 00:01:57;;;;;;;11.32;10.35;;;23.30;99.90;;;;;;5026858;28;20681;-75
2022/06/27 00:04:23;;;;;;;10.85;9.88;;;23.30;99.90;;;;;;5018365;28;20204;-74
2022/06/27 00:06:48;;;;;;;10.02;9.25;;;23.40;99.90;;;;;;5023566;28;20278;-75
2022/06/27 00:09:14;;;;;;;11.90;8.90;;;23.40;99.90;;;;;;5025474;28;20208;-75
2022/06/27 00:11:39;;;;;;;11.32;10.13;;;23.40;99.90;;;;;;5027793;28;20176;-75
2022/06/27 00:14:05;;;;;;;10.02;9.25;;;23.50;99.90;;;;;;5020589;28;20850;-75
2022/06/27 00:16:30;;;;;;;11.18;10.18;;;23.50;99.90;;;;;;5020453;28;20187;-76
2022/06/27 00:18:56;;;;;;;9.18;8.25;;;23.50;99.90;;;;;;5019782;28;20184;-77
2022/06/27 00:21:21;;;;;;;10.10;9.30;;;23.50;99.90;;;;;;5027618;28;20886;-74
2022/06/27 00:23:47;;;;;;;10.95;9.90;;;23.50;99.90;;;;;;5025533;28;20195;-76
2022/06/27 00:26:12;;;;;;;10.68;9.82;;;23.50;99.90;;;;;;5013030;28;20193;-75
2022/06/27 00:28:38;;;;;;;10.35;9.55;;;23.50;99.90;;;;;;5024624;28;20211;-74
2022/06/27 00:31:04;;;;;;;9.20;8.43;;;23.40;99.90;;;;;;5020060;28;20196;-73
2022/06/27 00:33:29;;;;;;;10.20;9.50;;;23.40;99.90;;;;;;5021728;28;20199;-75
2022/06/27 00:35:55;;;;;;;11.05;10.25;;;23.40;99.90;;;;;;5012503;28;20193;-76
2022/06/27 00:38:20;;;;;;;10.35;9.55;;;23.30;99.90;;;;;;5026976;28;20191;-74
2022/06/27 00:40:46;;;;;;;10.40;8.82;;;23.30;99.90;;;;;;5018504;28;20911;-75
2022/06/27 00:43:12;;;;;;;11.23;10.20;;;23.30;99.90;;;;;;5026801;28;20700;-75
2022/06/27 00:45:37;;;;;;;11.45;10.45;;;23.30;99.90;;;;;;5009654;28;20212;-74
2022/06/27 00:48:04;;;;;;;11.80;10.70;;;23.30;99.90;;;;;;5020907;28;20583;-74
2022/06/27 00:50:29;;;;;;;13.27;12.07;;;23.30;99.90;;;;;;5014832;28;20230;-74
2022/06/27 00:52:54;;;;;;;11.82;10.82;;;23.30;99.90;;;;;;5027010;28;20238;-75
2022/06/27 00:55:20;;;;;;;11.93;10.82;;;23.20;99.90;;;;;;5020658;28;20216;-75
2022/06/27 00:57:46;;;;;;;10.43;9.55;;;23.20;99.90;;;;;;5025786;28;20194;-75
2022/06/27 01:00:12;;;;;;;11.77;10.68;;;23.20;99.90;;;;;;5018083;28;20214;-74
2022/06/27 01:02:39;;;;;;;10.80;9.80;;;23.20;99.90;;;;;;5026511;28;20742;-72
2022/06/27 01:05:06;;;;;;;11.75;10.65;;;23.20;99.90;;;;;;5019230;28;20338;-72
2022/06/27 01:07:31;;;;;;;11.68;10.77;;;23.20;99.90;;;;;;5026067;28;20202;-71
2022/06/27 01:09:57;;;;;;;10.93;10.02;;;23.10;99.90;;;;;;5024430;28;20209;-72
2022/06/27 01:12:23;;;;;;;11.18;10.18;;;23.10;99.90;;;;;;5026606;28;20199;-73
2022/06/27 01:14:50;;;;;;;11.02;10.10;;;23.10;99.90;;;;;;5024561;28;20196;-74
2022/06/27 01:17:16;;;;;;;10.63;9.73;;;23.00;99.90;;;;;;5025271;28;20191;-74
2022/06/27 01:19:42;;;;;;;12.00;11.07;;;23.00;99.90;;;;;;5024347;28;20203;-74
2022/06/27 01:22:11;;;;;;;10.20;9.23;;;23.00;99.90;;;;;;5014058;28;20194;-73
2022/06/27 01:24:37;;;;;;;10.98;10.05;;;22.90;99.90;;;;;;5024029;28;20601;-72
2022/06/27 01:27:04;;;;;;;11.40;10.57;;;22.90;99.90;;;;;;5013115;28;20192;-71
2022/06/27 01:29:30;;;;;;;11.93;10.77;;;22.80;99.90;;;;;;5018790;28;20700;-74
2022/06/27 01:31:55;;;;;;;12.10;11.00;;;22.80;99.90;;;;;;5008889;28;20319;-71
2022/06/27 01:34:21;;;;;;;11.88;10.90;;;22.80;99.90;;;;;;5010746;28;20203;-72
2022/06/27 01:40:09;;;;;;;11.45;10.48;;;22.70;99.90;;;;;;5022830;28;20287;-73
2022/06/27 01:42:35;;;;;;;12.48;10.43;;;22.60;99.90;;;;;;5025756;28;20204;-72
2022/06/27 01:45:01;;;;;;;12.65;11.55;;;22.50;99.90;;;;;;5022831;28;20199;-74
2022/06/27 01:47:27;;;;;;;11.93;10.93;;;22.50;99.90;;;;;;5025028;28;20187;-73
2022/06/27 01:49:53;;;;;;;11.90;11.00;;;22.40;99.90;;;;;;5023610;28;20219;-74
2022/06/27 01:52:19;;;;;;;13.93;12.70;;;22.40;99.90;;;;;;5025489;28;20253;-76
2022/06/27 01:54:45;;;;;;;12.88;11.60;;;22.40;99.90;;;;;;5023567;28;20629;-74
2022/06/27 01:57:11;;;;;;;11.80;10.80;;;22.40;99.90;;;;;;5011265;28;20188;-75
2022/06/27 01:59:37;;;;;;;12.95;11.85;;;22.30;99.90;;;;;;5018400;28;20288;-75
2022/06/27 02:02:04;;;;;;;14.13;12.43;;;22.30;99.90;;;;;;5007561;28;20556;-74
2022/06/27 02:04:31;;;;;;;11.68;10.63;;;22.30;99.90;;;;;;5022600;28;20736;-74
2022/06/27 02:06:58;;;;;;;12.25;11.18;;;22.20;99.90;;;;;;5009051;28;20339;-74
2022/06/27 02:09:24;;;;;;;12.48;11.35;;;22.20;99.90;;;;;;5023361;28;20211;-74
2022/06/27 02:11:54;;;;;;;12.23;11.30;;;22.20;99.90;;;;;;5010065;28;20191;-75
2022/06/27 02:14:20;;;;;;;12.55;11.55;;;22.20;99.90;;;;;;5018213;28;20220;-74
2022/06/27 02:16:46;;;;;;;12.50;11.50;;;22.20;99.90;;;;;;5021455;28;20214;-75
2022/06/27 02:19:14;;;;;;;11.68;10.77;;;22.20;99.90;;;;;;5018219;28;20191;-74
2022/06/27 02:21:41;;;;;;;12.85;11.85;;;22.20;99.90;;;;;;5015390;28;20220;-75
2022/06/27 02:24:08;;;;;;;12.55;11.43;;;22.20;99.90;;;;;;5021705;28;20689;-74
2022/06/27 02:26:33;;;;;;;13.23;12.23;;;22.20;99.90;;;;;;5020285;28;20184;-74
2022/06/27 02:29:00;;;;;;;13.65;12.25;;;22.20;99.90;;;;;;5018993;28;20211;-74
2022/06/27 02:31:26;;;;;;;12.93;11.73;;;22.20;99.90;;;;;;5011325;28;20782;-73
2022/06/27 02:33:53;;;;;;;13.63;12.40;;;22.20;99.90;;;;;;5010669;28;20378;-73
2022/06/27 02:36:26;;;;;;;13.27;12.18;;;22.20;99.90;;;;;;5012205;28;20674;-74
2022/06/27 02:38:54;;;;;;;12.70;11.70;;;22.20;99.90;;;;;;5015453;28;20207;-74
2022/06/27 02:41:20;;;;;;;13.65;12.55;;;22.30;99.90;;;;;;5015150;28;20776;-73
2022/06/27 02:43:52;;;;;;;12.88;11.77;;;22.30;99.90;;;;;;5029359;28;20203;-74
2022/06/27 02:46:19;;;;;;;12.77;11.85;;;22.30;99.90;;;;;;5012249;28;20579;-73
2022/06/27 02:48:48;;;;;;;12.90;11.80;;;22.30;99.90;;;;;;5018098;28;20248;-74
2022/06/27 02:51:17;;;;;;;12.95;11.80;;;22.40;99.90;;;;;;5012045;28;20654;-74
2022/06/27 02:53:55;;;;;;;12.63;11.63;;;22.40;99.90;;;;;;5029235;28;20187;-74
2022/06/27 02:56:25;;;;;;;12.82;11.65;;;22.40;99.90;;;;;;5016581;28;20247;-74
2022/06/27 02:59:09;;;;;;;12.65;11.65;;;22.40;99.90;;;;;;5028928;28;20191;-74
2022/06/27 03:01:37;;;;;;;14.02;12.93;;;22.40;99.90;;;;;;5011064;28;20370;-73
2022/06/27 03:04:03;;;;;;;14.43;13.18;;;22.40;99.90;;;;;;5028827;28;20199;-74
2022/06/27 03:06:29;;;;;;;13.65;12.43;;;22.40;99.90;;;;;;5012057;28;20214;-75
2022/06/27 03:08:55;;;;;;;13.37;12.33;;;22.40;99.90;;;;;;5028547;28;20253;-72
2022/06/27 03:11:22;;;;;;;13.18;12.13;;;22.40;99.90;;;;;;5009199;28;20205;-71
2022/06/27 03:13:48;;;;;;;13.00;11.68;;;22.40;99.90;;;;;;5011223;28;20200;-71
2022/06/27 03:16:15;;;;;;;12.57;11.57;;;22.50;99.90;;;;;;5015801;28;20207;-76
2022/06/27 03:18:42;;;;;;;12.80;11.77;;;22.50;99.90;;;;;;5014855;28;20273;-87
2022/06/27 03:21:07;;;;;;;13.60;12.35;;;22.50;99.90;;;;;;5014905;28;20233;-80
2022/06/27 03:23:33;;;;;;;12.85;11.85;;;22.50;99.90;;;;;;5028098;28;20194;-79
2022/06/27 03:25:59;;;;;;;13.80;12.65;;;22.50;99.90;;;;;;5012674;28;20247;-80
2022/06/27 03:28:24;;;;;;;12.98;11.93;;;22.50;99.90;;;;;;5028012;28;20207;-80
2022/06/27 03:30:50;;;;;;;13.75;12.55;;;22.50;99.90;;;;;;5014181;28;20240;-79
2022/06/27 03:33:16;;;;;;;13.48;12.15;;;22.50;99.90;;;;;;5020819;28;20192;-79
2022/06/27 03:35:42;;;;;;;12.68;11.68;;;22.50;99.90;;;;;;5016173;28;20204;-79
2022/06/27 03:38:09;;;;;;;13.90;12.57;;;22.60;99.90;;;;;;5028165;28;20294;-80
2022/06/27 03:40:35;;;;;;;14.15;12.68;;;22.60;99.90;;;;;;5021080;28;20209;-79
2022/06/27 03:43:01;;;;;;;14.25;12.93;;;22.60;99.90;;;;;;5027601;28;20199;-78
2022/06/27 03:45:27;;;;;;;12.80;11.80;;;22.60;99.90;;;;;;5025942;28;20303;-78
2022/06/27 03:47:55;;;;;;;14.30;12.95;;;22.60;99.90;;;;;;5024623;28;20299;-79
2022/06/27 03:50:22;;;;;;;13.63;12.52;;;22.60;99.90;;;;;;5018231;28;20192;-81
2022/06/27 03:52:49;;;;;;;13.85;12.68;;;22.60;99.90;;;;;;5026790;28;20215;-79
2022/06/27 03:55:15;;;;;;;14.40;13.30;;;22.70;99.90;;;;;;5024638;28;20267;-79
2022/06/27 03:57:49;;;;;;;14.30;12.98;;;22.70;99.90;;;;;;5027946;28;20192;-80
2022/06/27 04:00:15;;;;;;;13.70;12.63;;;22.70;99.90;;;;;;5025626;28;20286;-81
2022/06/27 04:02:41;;;;;;;14.02;12.82;;;22.70;99.90;;;;;;5020185;28;20176;-81
2022/06/27 04:05:07;;;;;;;14.30;13.13;;;22.70;99.90;;;;;;5026676;28;20196;-80
2022/06/27 04:07:33;;;;;;;14.40;13.40;;;22.70;99.90;;;;;;5011303;28;20180;-80
2022/06/27 04:09:58;;;;;;;14.13;13.02;;;22.80;99.90;;;;;;5025845;28;20215;-80
2022/06/27 04:12:24;;;;;;;13.88;12.70;;;22.80;99.90;;;;;;5016233;28;20637;-80
2022/06/27 04:14:50;;;;;;;13.45;12.43;;;22.80;99.90;;;;;;5021928;28;20222;-81
2022/06/27 04:17:16;;;;;;;12.05;11.02;;;22.80;99.90;;;;;;5018386;28;20226;-82
2022/06/27 04:19:42;;;;;;;13.48;12.27;;;22.80;99.90;;;;;;5025182;28;20314;-80
2022/06/27 04:22:10;;;;;;;13.68;12.43;;;22.90;99.90;;;;;;5013715;28;20250;-80
2022/06/27 04:24:36;;;;;;;13.52;12.52;;;22.90;99.90;;;;;;5015665;28;20619;-81
2022/06/27 04:27:03;;;;;;;12.43;11.32;;;22.90;99.90;;;;;;5016382;28;20282;-80
2022/06/27 04:29:29;;;;;;;12.85;11.80;;;23.00;99.90;;;;;;5026540;28;20663;-81
2022/06/27 04:31:55;;;;;;;14.32;13.23;;;23.00;99.90;;;;;;5018336;28;20203;-80
2022/06/27 04:34:20;;;;;;;13.68;12.48;;;23.00;99.90;;;;;;5026845;28;20653;-75
2022/06/27 04:36:46;;;;;;;13.65;12.45;;;23.10;99.90;;;;;;5009393;28;20189;-77
2022/06/27 04:39:17;;;;;;;13.63;12.40;;;23.10;99.90;;;;;;5027118;28;20609;-82
2022/06/27 04:41:45;;;;;;;12.82;11.73;;;23.10;99.90;;;;;;5014837;28;20254;-82
2022/06/27 04:44:11;;;;;;;13.88;12.63;;;23.20;99.90;;;;;;5017098;28;20522;-78
2022/06/27 04:46:41;;;;;;;13.88;12.70;;;23.20;99.90;;;;;;5008346;28;20266;-84
2022/06/27 04:49:07;;;;;;;13.63;12.60;;;23.20;99.90;;;;;;5012030;28;20263;-85
2022/06/27 04:51:34;;;;;;;13.25;12.15;;;23.30;99.90;;;;;;5005388;28;20603;-85
2022/06/27 04:53:59;;;;;;;13.35;12.35;;;23.30;99.90;;;;;;5010746;28;20227;-84
2022/06/27 04:56:25;;;;;;;12.93;11.75;;;23.40;99.90;;;;;;5006888;28;20263;-85
2022/06/27 04:58:51;;;;;;;13.32;12.13;;;23.40;99.90;;;;;;5011518;28;20203;-81
2022/06/27 05:01:16;;;;;;;14.00;12.57;;;23.50;99.90;;;;;;5004141;28;20266;-84
2022/06/27 05:03:42;;;;;;;14.50;12.98;;;23.50;99.90;;;;;;5009152;28;20195;-84
2022/06/27 05:06:07;;;;;;;14.82;13.32;;;23.60;99.90;;;;;;5010031;28;20206;-78
2022/06/27 05:08:33;;;;;;;12.85;11.68;;;23.60;99.90;;;;;;5007117;28;20269;-81
2022/06/27 05:10:59;;;;;;;12.18;11.18;;;23.70;99.90;;;;;;5010217;28;20214;-81
2022/06/27 05:13:24;;;;;;;13.65;12.55;;;23.70;99.90;;;;;;5007804;28;20275;-78
2022/06/27 05:15:50;;;;;;;12.93;11.93;;;23.80;99.90;;;;;;5023884;28;20226;-80
2022/06/27 05:18:16;;;;;;;12.65;11.65;;;23.90;99.90;;;;;;5023394;28;20568;-79
2022/06/27 05:20:42;;;;;;;13.40;12.30;;;24.00;99.90;;;;;;5015410;28;20506;-79
2022/06/27 05:23:08;;;;;;;13.15;12.15;;;24.10;99.90;;;;;;5020525;28;20288;-79
2022/06/27 05:25:34;;;;;;;12.27;11.38;;;24.10;99.90;;;;;;5016199;28;20251;-78
2022/06/27 05:28:02;;;;;;;13.65;12.25;;;24.20;99.90;;;;;;5018850;28;20203;-76
2022/06/27 05:30:28;;;;;;;12.48;11.27;;;24.30;99.90;;;;;;5017905;28;20590;-78
2022/06/27 05:32:54;;;;;;;13.23;11.82;;;24.40;99.90;;;;;;5021962;28;20938;-81
2022/06/27 05:35:20;;;;;;;11.65;10.55;;;24.40;99.90;;;;;;5019167;28;20569;-78
2022/06/27 05:37:46;;;;;;;12.15;11.10;;;24.50;99.90;;;;;;5019380;28;20204;-78
2022/06/27 05:40:12;;;;;;;12.43;11.32;;;24.60;99.90;;;;;;5022979;28;20624;-77
2022/06/27 05:42:37;;;;;;;12.02;11.13;;;24.70;99.90;;;;;;5019865;28;20188;-77
2022/06/27 05:45:04;;;;;;;11.90;10.90;;;24.70;99.90;;;;;;5023278;28;20238;-77
2022/06/27 05:47:30;;;;;;;11.35;10.45;;;24.80;99.90;;;;;;5025597;28;20224;-77
2022/06/27 05:49:56;;;;;;;10.88;9.90;;;24.90;99.90;;;;;;5022338;28;20316;-77
2022/06/27 05:52:22;;;;;;;11.45;10.55;;;25.00;99.90;;;;;;5006272;28;20897;-78
2022/06/27 05:54:48;;;;;;;11.25;10.30;;;25.20;99.90;;;;;;5023639;28;20273;-78
2022/06/27 05:57:14;;;;;;;10.65;9.82;;;25.20;99.90;;;;;;5020127;28;20692;-78
2022/06/27 05:59:41;;;;;;;10.27;9.48;;;25.30;99.90;;;;;;5023957;28;20196;-76
2022/06/27 06:02:07;;;;;;;10.40;9.60;;;25.40;99.90;;;;;;5014164;28;20200;-77
2022/06/27 06:04:33;;;;;;;11.77;10.68;;;25.60;99.90;;;;;;5023698;28;20210;-77
2022/06/27 06:06:59;;;;;;;10.45;9.43;;;25.70;99.90;;;;;;5023336;28;20203;-77
2022/06/27 06:09:25;;;;;;;11.18;10.38;;;25.80;99.90;;;;;;5025207;28;20942;-81
2022/06/27 06:11:51;;;;;;;11.18;10.27;;;25.90;99.90;;;;;;5014112;28;20196;-80
2022/06/27 06:14:19;;;;;;;11.60;10.57;;;26.00;99.90;;;;;;5024802;28;20195;-79
2022/06/27 06:16:45;;;;;;;11.05;10.05;;;26.10;99.90;;;;;;5015090;28;20689;-75
2022/06/27 06:19:11;;;;;;;10.95;9.82;;;26.10;99.90;;;;;;5016149;28;20602;-79
2022/06/27 06:21:38;;;;;;;11.27;10.48;;;26.20;99.90;;;;;;5009914;28;20204;-79
2022/06/27 06:24:04;;;;;;;11.07;10.13;;;26.20;99.90;;;;;;5025475;28;20683;-78
2022/06/27 06:26:29;;;;;;;12.35;11.15;;;26.30;99.90;;;;;;5011224;28;20196;-84
2022/06/27 06:28:55;;;;;;;11.98;10.63;;;26.40;99.90;;;;;;5024997;28;20215;-79
2022/06/27 06:31:22;;;;;;;12.30;11.10;;;26.50;99.90;;;;;;5011576;28;20238;-78
2022/06/27 06:33:53;;;;;;;11.10;10.25;;;26.60;99.90;;;;;;5025157;28;20199;-80
2022/06/27 06:36:21;;;;;;;11.02;10.13;;;26.60;99.90;;;;;;5022024;28;20718;-79
2022/06/27 06:38:47;;;;;;;10.10;9.38;;;26.70;99.90;;;;;;5024995;28;20211;-80
2022/06/27 06:41:14;;;;;;;11.00;10.07;;;26.70;99.90;;;;;;5017082;28;20212;-79
2022/06/27 06:43:40;;;;;;;10.70;9.75;;;26.80;99.90;;;;;;5023817;28;20286;-80
2022/06/27 06:46:05;;;;;;;10.00;9.20;;;26.90;99.90;;;;;;5013004;28;20523;-79
2022/06/27 06:48:32;;;;;;;10.75;9.60;;;27.00;99.90;;;;;;5023803;28;20972;-79
2022/06/27 06:50:58;;;;;;;10.38;9.32;;;27.10;99.90;;;;;;5022477;28;20231;-84
2022/06/27 06:53:23;;;;;;;13.25;10.07;;;27.20;99.90;;;;;;5024937;28;20242;-80
2022/06/27 06:55:50;;;;;;;8.68;7.97;;;27.30;99.90;;;;;;5022872;28;20227;-79
2022/06/27 06:58:16;;;;;;;9.48;8.68;;;27.30;99.90;;;;;;5016638;28;20188;-79
2022/06/27 07:00:43;;;;;;;10.70;9.68;;;27.40;99.90;;;;;;5017488;28;20211;-80
2022/06/27 07:03:09;;;;;;;10.73;9.77;;;27.50;99.90;;;;;;5019076;28;20206;-80
2022/06/27 07:05:34;;;;;;;10.77;9.88;;;27.50;99.90;;;;;;5019073;28;20719;-78
2022/06/27 07:08:01;;;;;;;11.73;10.63;;;27.60;99.90;;;;;;5013665;28;20180;-77
2022/06/27 07:10:28;;;;;;;14.98;13.63;;;27.70;99.90;;;;;;5022204;28;20270;-77
2022/06/27 07:12:54;;;;;;;10.43;9.52;;;27.80;99.10;;;;;;5018110;28;20675;-78
2022/06/27 07:15:19;;;;;;;9.40;8.70;;;27.80;98.40;;;;;;5020904;28;20199;-77
2022/06/27 07:17:47;;;;;;;10.05;9.25;;;27.90;98.60;;;;;;5012559;28;20254;-76
2022/06/27 07:20:15;;;;;;;10.23;9.40;;;28.00;98.70;;;;;;5022912;28;20200;-77
2022/06/27 07:22:42;;;;;;;10.00;8.77;;;28.00;98.50;;;;;;5016122;28;20192;-76
2022/06/27 07:25:09;;;;;;;11.20;10.15;;;28.10;98.40;;;;;;5026153;28;20207;-78
2022/06/27 07:27:36;;;;;;;9.77;8.65;;;28.10;98.50;;;;;;5018206;28;20187;-79
2022/06/27 07:30:03;;;;;;;9.60;8.70;;;28.20;98.30;;;;;;5028418;28;20218;-78
2022/06/27 07:32:29;;;;;;;9.68;8.70;;;28.30;97.70;;;;;;5015427;28;20199;-78
2022/06/27 07:34:59;;;;;;;9.18;8.38;;;28.40;97.10;;;;;;5029243;28;20191;-81
2022/06/27 07:37:25;;;;;;;8.27;7.57;;;28.50;96.30;;;;;;5024281;28;20203;-79
2022/06/27 07:39:50;;;;;;;10.05;9.18;;;28.50;96.50;;;;;;5021362;28;20188;-77
2022/06/27 07:42:16;;;;;;;8.18;7.68;;;28.60;96.20;;;;;;5014871;28;20709;-76
2022/06/27 07:44:42;;;;;;;9.27;8.45;;;28.70;96.00;;;;;;5026239;28;20195;-77
2022/06/27 07:47:08;;;;;;;8.05;7.55;;;28.70;96.10;;;;;;5020295;28;20208;-79
2022/06/27 07:49:33;;;;;;;7.93;7.38;;;28.80;96.10;;;;;;5027104;28;20269;-78
2022/06/27 07:51:59;;;;;;;8.48;7.75;;;28.80;95.30;;;;;;5019726;28;20585;-77
2022/06/27 07:54:27;;;;;;;9.85;7.93;;;28.80;94.50;;;;;;5027692;28;20195;-77
2022/06/27 07:56:53;;;;;;;7.65;7.05;;;28.80;94.60;;;;;;5012863;28;20215;-77
2022/06/27 07:59:19;;;;;;;8.10;7.40;;;28.90;94.40;;;;;;5027472;28;20286;-76
2022/06/27 08:01:45;;;;;;;8.63;7.88;;;29.00;94.40;;;;;;5009122;28;20226;-79
2022/06/27 08:04:12;;;;;;;9.23;8.35;;;29.20;93.90;;;;;;5027285;28;20195;-81
2022/06/27 08:06:37;;;;;;;7.88;7.13;;;29.30;94.10;;;;;;5019734;28;20950;-79
2022/06/27 08:09:07;;;;;;;7.50;6.80;;;29.30;92.70;;;;;;5027925;28;20219;-80
2022/06/27 08:11:38;;;;;;;7.80;7.25;;;29.40;92.90;;;;;;5025877;28;20200;-80
2022/06/27 08:14:06;;;;;;;10.90;7.53;;;29.40;93.10;;;;;;5027510;28;20737;-79
2022/06/27 08:16:33;;;;;;;9.68;7.00;;;29.50;92.70;;;;;;5021372;28;20216;-78
2022/06/27 08:19:01;;;;;;;7.68;7.15;;;29.60;91.80;;;;;;5026848;28;20203;-79
2022/06/27 08:21:27;;;;;;;8.80;6.45;;;29.60;90.70;;;;;;5023901;28;20211;-79
2022/06/27 08:23:56;;;;;;;7.32;6.72;;;29.70;90.60;;;;;;5027957;28;20282;-81
2022/06/27 08:26:23;;;;;;;7.32;6.65;;;29.80;90.60;;;;;;5016875;28;20224;-77
2022/06/27 08:28:49;;;;;;;7.28;6.70;;;29.90;90.30;;;;;;5024165;28;20305;-78
2022/06/27 08:31:15;;;;;;;4.97;4.57;;;30.00;89.60;;;;;;5009857;28;20571;-81
2022/06/27 08:33:45;;;;;;;7.88;4.75;;;30.10;84.10;;;;;;5007967;28;20199;-76
2022/06/27 08:36:13;;;;;;;4.90;4.38;;;30.10;82.70;;;;;;5004506;28;20196;-82
2022/06/27 08:38:52;;;;;;;4.78;4.43;;;30.10;83.00;;;;;;5008346;28;20215;-84
2022/06/27 08:41:20;;;;;;;5.05;4.55;;;30.20;81.30;;;;;;5016458;28;20207;-74
2022/06/27 08:43:48;;;;;;;5.93;4.72;;;30.30;82.30;;;;;;5024724;28;20195;-75
2022/06/27 08:46:15;;;;;;;4.82;4.53;;;30.30;81.50;;;;;;5017652;28;20781;-73
2022/06/27 08:48:42;;;;;;;4.55;4.25;;;30.40;80.50;;;;;;5023448;28;20310;-75
2022/06/27 08:51:09;;;;;;;4.32;4.00;;;30.40;80.10;;;;;;5024053;28;20195;-77
2022/06/27 08:53:35;;;;;;;4.35;4.05;;;30.60;80.00;;;;;;5008382;28;20290;-76
2022/06/27 08:56:01;;;;;;;4.78;4.38;;;30.70;80.50;;;;;;5005837;28;20647;-79
2022/06/27 08:58:29;;;;;;;4.65;4.25;;;30.80;78.20;;;;;;5009442;28;20357;-78
2022/06/27 09:00:55;;;;;;;4.25;3.70;;;30.80;77.80;;;;;;5006837;28;20196;-77
2022/06/27 09:03:21;;;;;;;4.88;4.22;;;30.90;77.30;;;;;;5007735;28;20229;-80
2022/06/27 09:05:57;;;;;;;4.65;4.25;;;31.00;76.30;;;;;;5007272;28;20702;-72
2022/06/27 09:08:25;;;;;;;4.63;3.85;;;30.90;76.50;;;;;;5007819;28;20227;-75
2022/06/27 09:10:52;;;;;;;4.57;4.18;;;31.00;75.80;;;;;;5023829;28;20203;-71
2022/06/27 09:13:19;;;;;;;369.52;333.58;;;31.00;76.60;;;;;;5012065;28;20271;-71
2022/06/27 09:15:46;;;;;;;240.27;221.18;;;31.00;78.60;;;;;;5021349;28;20206;-70
2022/06/27 09:18:15;;;;;;;15.77;8.80;;;30.90;83.30;;;;;;5008262;28;20272;-74
2022/06/27 09:20:46;;;;;;;46.05;20.58;;;30.80;84.20;;;;;;5006057;28;20199;-67
2022/06/27 09:23:54;;;;;;;10.60;6.15;;;30.60;83.20;;;;;;5005860;28;20181;-66
2022/06/27 09:26:30;;;;;;;8.55;6.55;;;30.40;79.50;;;;;;5004268;28;20629;-66
2022/06/27 09:29:00;;;;;;;15.02;8.73;;;30.40;76.60;;;;;;5002627;28;20266;-69
2022/06/27 09:31:26;;;;;;;28.80;16.05;;;30.40;86.30;;;;;;5006776;28;20200;-67
2022/06/27 09:34:23;;;;;;;11.73;6.90;;;30.40;83.00;;;;;;5016885;28;20245;-68
2022/06/27 09:36:54;;;;;;;6.75;6.13;;;30.40;86.90;;;;;;5012677;28;20675;-69
2022/06/27 09:39:24;;;;;;;8.70;7.03;;;30.40;81.30;;;;;;5012810;28;20231;-69
2022/06/27 09:41:56;;;;;;;9.27;7.25;;;30.40;83.00;;;;;;5016463;28;20290;-69
2022/06/27 09:44:45;;;;;;;11.77;7.35;;;30.70;80.20;;;;;;5006153;28;20199;-69
2022/06/27 09:47:20;;;;;;;15.20;6.82;;;30.80;81.20;;;;;;5013932;28;20219;-68
2022/06/27 09:49:51;;;;;;;7.47;6.63;;;30.80;81.60;;;;;;5007060;28;20218;-66
2022/06/27 09:52:19;;;;;;;174.55;159.95;;;30.80;81.70;;;;;;5010540;28;20204;-67
2022/06/27 09:54:48;;;;;;;436.55;405.13;;;31.00;79.40;;;;;;5009808;28;20215;-68
2022/06/27 09:57:16;;;;;;;1278.20;999.90;;;31.00;84.10;;;;;;5009633;28;20204;-68
2022/06/27 09:59:43;;;;;;;1301.83;999.90;;;30.90;83.50;;;;;;5016605;28;20192;-67
2022/06/27 10:02:09;;;;;;;1288.47;999.90;;;31.00;79.90;;;;;;5004297;28;20228;-66
2022/06/27 10:04:37;;;;;;;1306.33;999.90;;;31.20;78.30;;;;;;5023633;28;20191;-67
2022/06/27 10:07:06;;;;;;;1297.83;999.90;;;31.10;85.50;;;;;;5010892;28;20204;-66
2022/06/27 10:09:32;;;;;;;1329.65;999.90;;;31.10;85.10;;;;;;5007842;28;20287;-67
2022/06/27 10:12:23;;;;;;;1334.60;999.90;;;31.10;86.40;;;;;;5002960;28;20212;-65
2022/06/27 10:15:10;;;;;;;1333.18;999.90;;;31.10;81.50;;;;;;5004386;28;20268;-66
2022/06/27 10:17:44;;;;;;;1300.93;999.90;;;31.10;82.70;;;;;;5002291;28;20222;-65
2022/06/27 10:20:15;;;;;;;1314.10;999.90;;;31.20;74.90;;;;;;5008495;28;20575;-65
2022/06/27 10:22:41;;;;;;;1314.57;999.90;;;31.30;80.40;;;;;;5002471;28;20204;-66
2022/06/27 10:25:25;;;;;;;1323.07;999.90;;;31.30;83.20;;;;;;5008285;28;20733;-67
2022/06/27 10:28:14;;;;;;;1319.03;999.90;;;31.30;76.70;;;;;;5007269;28;20570;-65
2022/06/27 10:30:42;;;;;;;1315.43;999.90;;;31.50;77.00;;;;;;5005090;28;20184;-65
2022/06/27 10:33:23;;;;;;;1325.33;999.90;;;31.50;81.70;;;;;;5003038;28;20196;-65
2022/06/27 10:36:10;;;;;;;1312.87;999.90;;;31.40;82.50;;;;;;5004845;28;20187;-67
2022/06/27 10:38:46;;;;;;;1323.97;999.90;;;31.50;75.80;;;;;;5001972;28;20617;-66
2022/06/27 10:41:31;;;;;;;1321.33;999.90;;;31.50;79.40;;;;;;5002732;28;20207;-66
2022/06/27 10:43:59;;;;;;;1324.93;999.90;;;31.70;74.50;;;;;;5002194;28;20242;-65
2022/06/27 10:46:24;;;;;;;1330.90;999.90;;;31.70;76.90;;;;;;5004106;28;20208;-66
2022/06/27 10:48:56;;;;;;;1323.75;999.90;;;31.80;72.60;;;;;;5004484;28;20569;-66
2022/06/27 10:51:24;;;;;;;1334.40;999.90;;;32.00;69.70;;;;;;5004437;28;20212;-67
2022/06/27 10:53:51;;;;;;;1329.72;999.90;;;32.00;75.10;;;;;;5004577;28;20275;-67
2022/06/27 10:56:26;;;;;;;1337.80;999.90;;;32.10;75.90;;;;;;5004832;28;20327;-67
2022/06/27 10:58:52;;;;;;;1330.93;999.90;;;32.10;81.20;;;;;;5017188;28;20213;-65
2022/06/27 11:01:18;;;;;;;1330.07;999.90;;;32.20;73.30;;;;;;5026496;28;20475;-66
2022/06/27 11:03:44;;;;;;;1339.43;999.90;;;32.30;71.00;;;;;;5018225;28;20181;-66
2022/06/27 11:06:13;;;;;;;1355.10;999.90;;;32.40;78.50;;;;;;5008814;28;20192;-65
2022/06/27 11:08:41;;;;;;;1337.50;999.90;;;32.60;69.70;;;;;;5008413;28;20278;-65
2022/06/27 11:11:07;;;;;;;1374.03;999.90;;;32.80;73.40;;;;;;5007646;28;20642;-65
2022/06/27 11:13:49;;;;;;;1347.03;999.90;;;33.00;74.50;;;;;;5008418;28;20648;-66
2022/06/27 11:16:25;;;;;;;1361.72;999.90;;;33.30;75.50;;;;;;5017848;28;20729;-80
2022/06/27 11:18:53;;;;;;;1365.70;999.90;;;33.60;69.30;;;;;;5023743;28;20337;-65
2022/06/27 11:21:24;;;;;;;1358.93;999.90;;;34.00;72.30;;;;;;5022957;28;20200;-65
2022/06/27 11:24:00;;;;;;;1374.60;999.90;;;34.20;67.90;;;;;;5025524;28;20193;-88
2022/06/27 11:26:31;;;;;;;1375.88;999.90;;;34.50;63.50;;;;;;5031007;28;20195;-88
2022/06/27 11:32:03;;;;;;;1390.40;999.90;;;35.10;65.30;;;;;;5018054;28;20757;-82
2022/06/27 11:34:31;;;;;;;1391.07;999.90;;;35.20;65.00;;;;;;5020071;28;20208;-81
2022/06/27 11:37:00;;;;;;;1394.45;999.90;;;35.20;58.70;;;;;;5009333;28;20189;-83
2022/06/27 11:39:31;;;;;;;1398.07;999.90;;;35.30;62.10;;;;;;5012896;28;20195;-84
2022/06/27 11:42:02;;;;;;;1406.78;999.90;;;35.60;58.20;;;;;;5007948;28;20254;-83
2022/06/27 11:44:28;;;;;;;1405.38;999.90;;;35.70;58.40;;;;;;5018261;28;20195;-83
2022/06/27 11:47:04;;;;;;;1411.80;999.90;;;36.00;57.20;;;;;;5012315;28;20199;-84
2022/06/27 11:49:33;;;;;;;1411.65;999.90;;;36.40;58.30;;;;;;5010722;28;20218;-82
2022/06/27 11:52:02;;;;;;;1415.88;999.90;;;36.80;56.60;;;;;;5007743;28;20564;-77
2022/06/27 11:54:51;;;;;;;1425.35;999.90;;;37.10;54.40;;;;;;5016107;28;20686;-79
2022/06/27 11:57:21;;;;;;;1427.88;999.90;;;37.70;54.80;;;;;;5005835;28;20207;-81
2022/06/27 11:59:51;;;;;;;1431.45;999.90;;;37.80;53.10;;;;;;5010520;28;20283;-83
2022/06/27 12:02:31;;;;;;;1432.22;999.90;;;38.10;53.30;;;;;;5008840;28;20257;-84
2022/06/27 12:05:12;;;;;;;1439.30;999.90;;;38.40;50.00;;;;;;5009276;28;20876;-81
2022/06/27 12:07:59;;;;;;;1436.43;999.90;;;38.60;47.40;;;;;;5007514;28;20208;-80
2022/06/27 12:10:35;;;;;;;1445.53;999.90;;;38.80;51.50;;;;;;5006615;28;20216;-82
2022/06/27 12:13:00;;;;;;;1449.97;999.90;;;39.10;47.30;;;;;;5008391;28;20210;-75
2022/06/27 12:15:26;;;;;;;1453.00;999.90;;;39.20;49.10;;;;;;5027401;28;20196;-75
2022/06/27 12:17:59;;;;;;;1459.07;999.90;;;39.60;46.00;;;;;;5013838;28;20235;-76
2022/06/27 12:20:30;;;;;;;1457.82;999.90;;;39.80;48.80;;;;;;5027641;28;20605;-84
2022/06/27 12:22:56;;;;;;;1457.53;999.90;;;39.70;46.00;;;;;;5012277;28;20291;-84
2022/06/27 12:25:22;;;;;;;1456.50;999.90;;;39.40;44.70;;;;;;5029389;28;20290;-76
2022/06/27 12:27:48;;;;;;;1457.47;999.90;;;39.30;47.40;;;;;;5015673;28;20280;-79
2022/06/27 12:30:14;;;;;;;1461.75;999.90;;;39.70;45.20;;;;;;5025589;28;20207;-76
2022/06/27 12:32:40;;;;;;;1459.40;999.90;;;39.60;46.30;;;;;;5008383;28;20569;-85
2022/06/27 12:35:06;;;;;;;1468.47;999.90;;;39.90;45.80;;;;;;5027218;28;20230;-84
2022/06/27 12:37:35;;;;;;;1464.18;999.90;;;40.10;45.40;;;;;;5014540;28;20270;-79